createdAt,value
2019-05-20T00:00:56.289Z,22.90
2019-05-20T00:06:01.086Z,25.20
2019-05-20T00:11:05.993Z,22.20
2019-05-20T00:16:10.874Z,28.80
2019-05-20T00:21:15.652Z,24.23
2019-05-20T00:26:20.492Z,30.13
2019-05-20T00:31:25.324Z,27.60
2019-05-20T00:36:30.096Z,28.77
2019-05-20T00:41:34.852Z,28.27
2019-05-20T00:46:39.552Z,25.40
2019-05-20T00:51:44.393Z,25.97
2019-05-20T00:56:52.415Z,27.53
2019-05-20T01:01:57.308Z,29.00
2019-05-20T01:07:02.144Z,29.00
2019-05-20T01:12:06.976Z,28.67
2019-05-20T01:17:11.815Z,28.10
2019-05-20T01:22:16.657Z,26.07
2019-05-20T01:27:21.502Z,29.47
2019-05-20T01:32:26.333Z,24.83
2019-05-20T01:37:31.164Z,27.00
2019-05-20T01:42:36.008Z,25.50
2019-05-20T01:47:41.432Z,25.33
2019-05-20T01:52:46.913Z,33.80
2019-05-20T01:57:52.029Z,28.00
2019-05-20T02:02:57.271Z,30.60
2019-05-20T02:08:02.119Z,26.33
2019-05-20T02:13:07.020Z,32.70
2019-05-20T02:18:11.852Z,23.80
2019-05-20T02:23:17.174Z,29.50
2019-05-20T02:28:22.067Z,28.87
2019-05-20T02:33:26.891Z,26.10
2019-05-20T02:38:31.727Z,26.67
2019-05-20T02:43:36.561Z,29.33
2019-05-20T02:48:41.328Z,26.83
2019-05-20T02:53:46.158Z,28.00
2019-05-20T02:58:50.998Z,26.13
2019-05-20T03:04:10.678Z,27.07
2019-05-20T03:09:02.397Z,26.53
2019-05-20T03:14:07.309Z,25.50
2019-05-20T03:19:12.080Z,30.13
2019-05-20T03:24:16.911Z,25.40
2019-05-20T03:29:21.738Z,28.40
2019-05-20T03:34:45.621Z,25.77
2019-05-20T03:39:33.048Z,22.87
2019-05-20T03:44:37.882Z,26.30
2019-05-20T03:49:42.651Z,21.87
2019-05-20T03:54:47.477Z,30.03
2019-05-20T03:59:52.326Z,27.93
2019-05-20T04:05:02.649Z,21.80
2019-05-20T04:10:06.067Z,20.97
2019-05-20T04:15:10.974Z,21.57
2019-05-20T04:20:15.820Z,25.20
2019-05-20T04:25:23.819Z,28.07
2019-05-20T04:30:28.653Z,28.30
2019-05-20T04:35:33.494Z,22.57
2019-05-20T04:40:38.345Z,20.57
2019-05-20T04:45:43.190Z,22.03
2019-05-20T04:50:48.023Z,17.97
2019-05-20T04:55:53.197Z,17.43
2019-05-20T05:00:58.611Z,23.23
2019-05-20T05:06:03.588Z,22.50
2019-05-20T05:11:08.421Z,19.30
2019-05-20T05:16:13.330Z,18.37
2019-05-20T05:21:18.270Z,17.43
2019-05-20T05:26:23.207Z,18.60
2019-05-20T05:31:28.112Z,14.73
2019-05-20T05:36:32.950Z,17.50
2019-05-20T05:41:37.792Z,17.60
2019-05-20T05:46:42.622Z,18.90
2019-05-20T05:51:47.395Z,14.87
2019-05-20T05:56:53.630Z,15.23
2019-05-20T06:01:58.460Z,14.53
2019-05-20T06:07:03.314Z,13.40
2019-05-20T06:12:08.128Z,18.50
2019-05-20T06:17:13.039Z,14.27
2019-05-20T06:22:17.864Z,17.53
2019-05-20T06:27:22.705Z,17.67
2019-05-20T06:32:27.536Z,16.40
2019-05-20T06:37:34.005Z,17.90
2019-05-20T06:42:38.954Z,16.37
2019-05-20T06:47:43.820Z,14.63
2019-05-20T06:52:48.593Z,15.70
2019-05-20T06:57:53.424Z,16.23
2019-05-20T07:02:58.269Z,17.37
2019-05-20T07:08:03.123Z,18.30
2019-05-20T07:13:07.970Z,11.93
2019-05-20T07:18:12.811Z,17.93
2019-05-20T07:23:17.574Z,20.23
2019-05-20T07:28:22.921Z,14.57
2019-05-20T07:33:27.762Z,12.23
2019-05-20T07:38:32.694Z,12.47
2019-05-20T07:43:37.521Z,13.27
2019-05-20T07:48:42.410Z,10.77
2019-05-20T07:53:47.340Z,17.43
2019-05-20T07:58:55.105Z,13.17
2019-05-20T08:03:59.960Z,16.87
2019-05-20T08:09:06.993Z,18.03
2019-05-20T08:14:11.834Z,14.47
2019-05-20T08:19:16.791Z,15.63
2019-05-20T08:24:21.597Z,16.73
2019-05-20T08:29:26.448Z,23.00
2019-05-20T08:34:31.651Z,20.77
2019-05-20T08:39:36.854Z,13.23
2019-05-20T08:44:41.558Z,13.30
2019-05-20T08:49:46.706Z,10.57
2019-05-20T08:54:51.856Z,15.90
2019-05-20T08:59:57.061Z,11.13
2019-05-20T09:05:01.920Z,18.80
2019-05-20T09:10:06.887Z,16.13
2019-05-20T09:15:12.905Z,20.17
2019-05-20T09:20:18.045Z,19.77
2019-05-20T09:25:32.934Z,11.80
2019-05-20T09:30:37.792Z,9.73
2019-05-20T09:35:43.133Z,14.47
2019-05-20T09:40:49.570Z,21.20
2019-05-20T09:46:06.737Z,10.40
2019-05-20T09:51:00.930Z,13.97
2019-05-20T09:56:07.462Z,8.00
2019-05-20T10:01:12.293Z,13.83
2019-05-20T10:06:17.138Z,10.23
2019-05-20T10:11:21.929Z,8.63
2019-05-20T10:16:26.789Z,10.27
2019-05-20T10:21:31.571Z,16.67
2019-05-20T10:26:36.461Z,12.80
2019-05-20T10:31:41.326Z,15.67
2019-05-20T10:36:46.260Z,8.17
2019-05-20T10:41:51.044Z,16.47
2019-05-20T10:46:55.825Z,8.97
2019-05-20T10:52:00.689Z,14.83
2019-05-20T10:57:05.726Z,10.63
2019-05-20T11:02:10.580Z,11.40
2019-05-20T11:07:15.449Z,13.93
2019-05-20T11:12:20.308Z,7.97
2019-05-20T11:17:25.165Z,23.00
2019-05-20T11:22:30.066Z,57.10
2019-05-20T11:27:34.897Z,14.03
2019-05-20T11:32:39.935Z,13.33
2019-05-20T11:37:45.366Z,12.00
2019-05-20T11:42:50.120Z,13.40
2019-05-20T11:47:54.969Z,14.07
2019-05-20T11:52:59.860Z,9.70
2019-05-20T11:58:15.133Z,10.87
2019-05-20T12:03:11.590Z,8.30
2019-05-20T12:08:16.414Z,9.03
2019-05-20T12:13:21.321Z,8.13
2019-05-20T12:18:26.069Z,8.60
2019-05-20T12:23:30.867Z,10.60
2019-05-20T12:28:35.693Z,10.43
2019-05-20T12:33:40.529Z,15.30
2019-05-20T12:38:45.737Z,9.87
2019-05-20T12:44:09.622Z,9.43
2019-05-20T12:48:57.082Z,10.55
2019-05-20T12:54:01.869Z,9.73
2019-05-20T12:59:07.572Z,7.30
2019-05-20T13:04:12.501Z,9.60
2019-05-20T13:09:17.370Z,14.85
2019-05-20T13:14:22.199Z,7.60
2019-05-20T13:19:27.045Z,10.50
2019-05-20T13:24:31.881Z,9.58
2019-05-20T13:29:36.709Z,19.07
2019-05-20T13:34:41.478Z,11.03
2019-05-20T13:39:46.501Z,12.10
2019-05-20T13:44:51.328Z,4.97
2019-05-20T13:49:56.171Z,8.18
2019-05-20T13:55:01.032Z,8.23
2019-05-20T14:00:08.929Z,11.85
2019-05-20T14:05:13.760Z,9.03
2019-05-20T14:10:18.702Z,11.45
2019-05-20T14:15:23.600Z,8.25
2019-05-20T14:20:28.430Z,10.32
2019-05-20T14:35:54.265Z,9.35
2019-05-20T14:40:59.208Z,6.67
2019-05-20T14:46:04.050Z,9.40
2019-05-20T14:51:08.894Z,5.87
2019-05-20T14:56:13.702Z,15.00
2019-05-20T15:01:18.460Z,12.82
2019-05-20T15:06:23.289Z,11.20
2019-05-20T15:11:37.731Z,13.27
2019-05-20T15:16:34.504Z,9.47
2019-05-20T15:21:40.360Z,10.87
2019-05-20T15:26:45.277Z,15.73
2019-05-20T15:31:50.151Z,15.43
2019-05-20T15:36:54.912Z,16.47
2019-05-20T15:41:59.861Z,12.17
2019-05-20T15:47:04.659Z,11.63
2019-05-20T15:52:09.500Z,11.53
2019-05-20T15:57:14.337Z,14.23
2019-05-20T16:02:19.178Z,15.37
2019-05-20T16:07:24.115Z,13.70
2019-05-20T16:12:28.883Z,10.40
2019-05-20T16:17:33.733Z,11.70
2019-05-20T16:22:38.548Z,11.97
2019-05-20T16:27:43.378Z,13.95
2019-05-20T16:32:48.337Z,8.77
2019-05-20T16:37:53.172Z,8.83
2019-05-20T16:42:58.013Z,17.83
2019-05-20T16:48:02.855Z,12.20
2019-05-20T16:53:07.677Z,15.10
2019-05-20T16:58:12.482Z,7.80
2019-05-20T17:03:17.319Z,5.30
2019-05-20T17:08:22.160Z,7.30
2019-05-20T17:13:27.045Z,4.57
2019-05-20T17:18:32.395Z,5.20
2019-05-20T17:23:37.331Z,6.87
2019-05-20T17:28:42.664Z,10.20
2019-05-20T17:33:47.819Z,21.30
2019-05-20T17:38:54.064Z,14.37
2019-05-20T17:43:58.992Z,7.50
2019-05-20T17:49:03.931Z,10.10
2019-05-20T17:54:08.775Z,10.20
2019-05-20T17:59:13.872Z,19.27
2019-05-20T18:04:18.844Z,3.93
2019-05-20T18:09:25.355Z,4.40
2019-05-20T18:14:30.182Z,4.57
2019-05-20T18:19:35.108Z,3.10
2019-05-20T18:24:40.152Z,15.97
2019-05-20T18:29:45.209Z,44.93
2019-05-20T18:34:50.040Z,6.53
2019-05-20T18:39:55.094Z,6.03
2019-05-20T18:44:59.868Z,13.90
2019-05-20T18:50:09.233Z,8.93
2019-05-20T18:55:14.161Z,28.27
2019-05-20T19:00:19.665Z,16.97
2019-05-20T19:05:24.496Z,17.73
2019-05-20T19:10:29.346Z,76.67
2019-05-20T19:15:34.292Z,131.30
2019-05-20T19:20:40.622Z,128.23
2019-05-20T19:25:45.452Z,58.50
2019-05-20T19:30:50.295Z,67.90
2019-05-20T19:35:55.126Z,46.83
2019-05-20T19:40:59.973Z,39.60
2019-05-20T19:46:04.797Z,38.90
2019-05-20T19:51:11.208Z,43.10
2019-05-20T19:56:16.041Z,34.00
2019-05-20T20:01:20.804Z,33.97
2019-05-20T20:06:25.578Z,23.43
2019-05-20T20:11:30.407Z,19.20
2019-05-20T20:16:35.182Z,18.43
2019-05-20T20:21:40.090Z,22.77
2019-05-20T20:26:44.816Z,19.33
2019-05-20T20:31:49.730Z,17.97
2019-05-20T20:36:54.500Z,19.03
2019-05-20T20:41:59.337Z,27.87
2019-05-20T20:47:04.191Z,28.50
2019-05-20T20:52:09.141Z,23.33
2019-05-20T20:57:13.905Z,34.13
2019-05-20T21:02:18.743Z,37.30
2019-05-20T21:07:23.510Z,23.17
2019-05-20T21:12:28.461Z,16.13
2019-05-20T21:17:33.318Z,13.27
2019-05-20T21:22:38.145Z,10.70
2019-05-20T21:27:42.980Z,11.03
2019-05-20T21:32:48.233Z,15.67
2019-05-20T21:37:53.060Z,18.50
2019-05-20T21:42:57.893Z,12.33
2019-05-20T21:48:02.734Z,14.57
2019-05-20T21:53:07.645Z,14.57
2019-05-20T21:58:12.481Z,17.07
2019-05-20T22:03:24.333Z,6.37
2019-05-20T22:08:23.782Z,11.03
2019-05-20T22:13:28.605Z,17.43
2019-05-20T22:18:33.435Z,14.27
2019-05-20T22:23:39.910Z,9.13
2019-05-20T22:28:44.604Z,6.60
2019-05-20T22:33:49.437Z,9.63
2019-05-20T22:38:54.208Z,12.17
2019-05-20T22:43:59.001Z,7.87
2019-05-20T22:49:03.822Z,14.07
2019-05-20T22:54:08.693Z,17.67
2019-05-20T22:59:13.588Z,9.70
2019-05-20T23:04:18.412Z,8.67
2019-05-20T23:09:23.242Z,8.70
2019-05-20T23:14:27.996Z,9.27
2019-05-20T23:19:32.839Z,14.43
2019-05-20T23:24:37.677Z,13.77
2019-05-20T23:29:42.443Z,10.03
2019-05-20T23:34:47.206Z,9.27
2019-05-20T23:39:52.032Z,8.30
2019-05-20T23:44:57.106Z,7.90
2019-05-20T23:50:01.904Z,11.13
2019-05-20T23:55:08.295Z,11.27
